createdAt,value
2019-02-02T00:00:50.080Z,7.60
2019-02-02T00:04:55.822Z,7.50
2019-02-02T00:09:02.638Z,7.40
2019-02-02T00:13:09.393Z,7.20
2019-02-02T00:17:15.171Z,7.00
2019-02-02T00:21:21.006Z,6.80
2019-02-02T00:25:26.757Z,6.60
2019-02-02T00:29:32.635Z,6.80
2019-02-02T00:33:38.347Z,6.70
2019-02-02T00:37:44.052Z,6.90
2019-02-02T00:41:49.803Z,7.10
2019-02-02T00:45:55.470Z,6.90
2019-02-02T00:50:20.639Z,6.70
2019-02-02T00:54:26.328Z,6.90
2019-02-02T00:58:32.145Z,6.90
2019-02-02T01:02:38.069Z,7.10
2019-02-02T01:06:43.888Z,7.10
2019-02-02T01:10:49.730Z,7.10
2019-02-02T01:14:55.690Z,7.00
2019-02-02T01:19:01.385Z,6.90
2019-02-02T01:23:07.593Z,7.00
2019-02-02T01:27:13.462Z,7.10
2019-02-02T01:31:19.211Z,7.20
2019-02-02T01:35:24.965Z,7.10
2019-02-02T01:39:30.656Z,7.10
2019-02-02T01:43:36.347Z,7.10
2019-02-02T01:47:42.347Z,7.10
2019-02-02T01:51:48.012Z,7.10
2019-02-02T01:55:53.752Z,7.20
2019-02-02T01:59:59.432Z,7.30
2019-02-02T02:04:05.255Z,7.20
2019-02-02T02:08:11.091Z,7.30
2019-02-02T02:12:16.761Z,7.40
2019-02-02T02:16:22.627Z,7.40
2019-02-02T02:20:28.415Z,7.40
2019-02-02T02:24:34.120Z,7.40
2019-02-02T02:28:39.813Z,7.30
2019-02-02T02:32:45.642Z,7.30
2019-02-02T02:36:51.311Z,7.20
2019-02-02T02:40:58.202Z,7.10
2019-02-02T02:45:04.914Z,7.10
2019-02-02T02:49:10.596Z,7.10
2019-02-02T02:53:16.287Z,7.20
2019-02-02T02:57:21.958Z,7.20
2019-02-02T03:01:27.651Z,7.10
2019-02-02T03:05:33.816Z,7.10
2019-02-02T03:09:39.510Z,7.20
2019-02-02T03:13:45.188Z,7.20
2019-02-02T03:17:52.177Z,7.10
2019-02-02T03:21:59.042Z,7.00
2019-02-02T03:26:04.931Z,7.10
2019-02-02T03:30:17.547Z,7.20
2019-02-02T03:34:23.286Z,7.20
2019-02-02T03:38:28.961Z,7.20
2019-02-02T03:42:34.696Z,7.20
2019-02-02T04:04:16.932Z,6.80
2019-02-02T04:14:15.937Z,6.80
2019-02-02T04:18:21.611Z,6.90
2019-02-02T04:23:16.064Z,6.90
2019-02-02T04:28:16.269Z,6.70
2019-02-02T04:43:16.287Z,6.70
2019-02-02T04:48:18.655Z,6.80
2019-02-02T04:53:18.041Z,6.80
2019-02-02T04:58:17.659Z,6.80
2019-02-02T05:02:23.349Z,6.60
2019-02-02T05:07:17.022Z,6.50
2019-02-02T05:12:17.149Z,6.70
2019-02-02T05:21:19.565Z,6.80
2019-02-02T05:26:15.768Z,6.80
2019-02-02T05:31:15.482Z,6.80
2019-02-02T05:35:21.327Z,6.80
2019-02-02T05:41:15.142Z,6.80
2019-02-02T05:46:14.808Z,6.70
2019-02-02T05:51:15.790Z,6.70
2019-02-02T06:01:17.776Z,6.70
2019-02-02T06:06:17.952Z,6.70
2019-02-02T06:15:20.314Z,6.60
2019-02-02T06:19:43.755Z,6.70
2019-02-02T06:24:19.256Z,6.60
2019-02-02T06:29:19.581Z,6.50
2019-02-02T06:43:15.606Z,6.70
2019-02-02T06:47:21.288Z,6.70
2019-02-02T06:51:27.042Z,6.60
2019-02-02T06:55:32.741Z,6.60
2019-02-02T06:59:38.422Z,6.50
2019-02-02T07:03:44.120Z,6.60
2019-02-02T07:07:49.787Z,6.70
2019-02-02T07:11:55.487Z,6.90
2019-02-02T07:16:01.192Z,7.00
2019-02-02T07:20:11.716Z,6.90
2019-02-02T07:24:17.402Z,6.80
2019-02-02T07:28:23.162Z,6.70
2019-02-02T07:33:02.495Z,6.60
2019-02-02T07:37:08.235Z,6.60
2019-02-02T07:41:13.927Z,6.60
2019-02-02T07:45:32.740Z,6.50
2019-02-02T07:49:38.416Z,6.50
2019-02-02T07:53:44.099Z,6.60
2019-02-02T07:57:50.020Z,6.80
2019-02-02T08:01:55.767Z,6.80
2019-02-02T08:06:01.454Z,6.70
2019-02-02T08:10:11.699Z,6.60
2019-02-02T08:14:17.393Z,6.60
2019-02-02T08:18:23.135Z,6.70
2019-02-02T08:22:28.839Z,6.90
2019-02-02T08:26:34.608Z,7.20
2019-02-02T08:30:51.570Z,7.30
2019-02-02T08:34:48.039Z,7.30
2019-02-02T08:38:53.783Z,7.40
2019-02-02T08:42:59.492Z,7.40
2019-02-02T08:47:05.323Z,7.70
2019-02-02T08:51:11.020Z,7.90
2019-02-02T08:55:16.781Z,8.10
2019-02-02T08:59:22.454Z,7.90
2019-02-02T09:03:28.256Z,8.10
2019-02-02T09:07:33.990Z,8.90
2019-02-02T09:11:39.692Z,9.30
2019-02-02T09:15:45.383Z,9.40
2019-02-02T09:19:51.092Z,9.60
2019-02-02T09:23:56.780Z,9.80
2019-02-02T09:28:02.489Z,10.00
2019-02-02T09:32:08.179Z,11.10
2019-02-02T09:36:16.796Z,12.30
2019-02-02T09:40:21.877Z,13.60
2019-02-02T09:44:27.557Z,13.40
2019-02-02T09:48:33.272Z,13.00
2019-02-02T09:52:38.971Z,12.90
2019-02-02T09:56:44.671Z,12.60
2019-02-02T10:00:50.371Z,11.80
2019-02-02T10:04:56.075Z,14.60
2019-02-02T10:09:01.764Z,14.00
2019-02-02T10:13:09.216Z,14.60
2019-02-02T10:17:15.060Z,16.10
2019-02-02T10:21:20.835Z,17.80
2019-02-02T10:25:31.766Z,17.10
2019-02-02T10:29:37.477Z,16.80
2019-02-02T10:33:43.218Z,16.10
2019-02-02T10:37:48.952Z,14.10
2019-02-02T10:41:54.676Z,13.30
2019-02-02T10:46:00.525Z,14.90
2019-02-02T10:50:12.359Z,13.30
2019-02-02T10:54:18.052Z,12.90
2019-02-02T10:58:23.841Z,12.90
2019-02-02T11:02:29.619Z,12.80
2019-02-02T11:06:35.452Z,12.60
2019-02-02T11:10:41.279Z,12.60
2019-02-02T11:14:47.196Z,12.40
2019-02-02T11:18:53.001Z,12.60
2019-02-02T11:22:58.935Z,13.30
2019-02-02T11:27:04.937Z,13.50
2019-02-02T11:31:10.708Z,14.50
2019-02-02T11:35:21.853Z,14.90
2019-02-02T11:39:27.538Z,14.20
2019-02-02T11:43:33.245Z,13.60
2019-02-02T11:47:39.017Z,14.90
2019-02-02T11:51:44.778Z,15.60
2019-02-02T11:55:50.676Z,17.20
2019-02-02T11:59:56.339Z,17.10
2019-02-02T12:04:02.036Z,17.60
2019-02-02T12:08:07.891Z,17.70
2019-02-02T12:12:13.588Z,17.40
2019-02-02T12:21:19.232Z,21.90
2019-02-02T12:26:18.831Z,21.20
2019-02-02T12:30:33.551Z,17.20
2019-02-02T12:35:19.485Z,14.80
2019-02-02T12:39:25.181Z,14.10
2019-02-02T12:44:18.681Z,14.20
2019-02-02T12:48:24.510Z,13.40
2019-02-02T12:52:31.901Z,12.40
2019-02-02T12:56:37.590Z,12.80
2019-02-02T13:00:44.435Z,12.90
2019-02-02T13:04:50.432Z,12.40
2019-02-02T13:08:56.138Z,12.20
2019-02-02T13:13:01.840Z,12.20
2019-02-02T13:17:07.716Z,12.40
2019-02-02T13:21:13.423Z,14.80
2019-02-02T13:25:23.147Z,16.40
2019-02-02T13:29:28.850Z,15.00
2019-02-02T13:33:34.551Z,14.30
2019-02-02T13:37:40.389Z,13.80
2019-02-02T13:41:46.069Z,13.30
2019-02-02T13:45:51.756Z,12.80
2019-02-02T13:49:57.454Z,12.60
2019-02-02T13:54:03.151Z,12.50
2019-02-02T13:58:08.914Z,12.40
2019-02-02T14:02:17.397Z,12.30
2019-02-02T14:06:22.124Z,12.30
2019-02-02T14:10:33.924Z,12.30
2019-02-02T14:14:39.628Z,12.10
2019-02-02T14:18:45.341Z,12.10
2019-02-02T14:22:51.265Z,12.10
2019-02-02T14:26:57.002Z,12.10
2019-02-02T14:31:02.680Z,12.00
2019-02-02T14:35:13.085Z,11.80
2019-02-02T14:39:18.773Z,11.80
2019-02-02T14:43:24.476Z,11.60
2019-02-02T14:47:30.169Z,11.60
2019-02-02T14:51:35.845Z,11.60
2019-02-02T14:55:45.909Z,11.60
2019-02-02T14:59:50.806Z,11.50
2019-02-02T15:03:56.750Z,11.50
2019-02-02T15:08:02.450Z,11.50
2019-02-02T15:12:08.130Z,11.40
2019-02-02T15:16:13.843Z,11.30
2019-02-02T15:20:34.931Z,11.20
2019-02-02T15:24:40.612Z,11.20
2019-02-02T15:28:46.351Z,11.20
2019-02-02T15:32:52.196Z,11.10
2019-02-02T15:36:57.900Z,11.00
2019-02-02T15:41:03.757Z,10.90
2019-02-02T15:45:14.254Z,10.90
2019-02-02T15:49:20.052Z,10.90
2019-02-02T15:53:25.732Z,10.90
2019-02-02T15:57:31.432Z,10.90
2019-02-02T16:01:37.750Z,10.80
2019-02-02T16:05:43.481Z,10.80
2019-02-02T16:09:49.176Z,10.90
2019-02-02T16:13:54.949Z,10.80
2019-02-02T16:18:00.685Z,10.70
2019-02-02T16:22:06.390Z,10.70
2019-02-02T16:26:12.161Z,10.60
2019-02-02T16:30:22.021Z,10.50
2019-02-02T16:45:22.098Z,10.50
2019-02-02T16:54:18.125Z,10.30
2019-02-02T16:59:18.243Z,10.10
2019-02-02T17:03:23.944Z,10.00
2019-02-02T17:33:17.997Z,9.50
2019-02-02T17:47:18.736Z,9.40
2019-02-02T18:03:00.541Z,9.60
2019-02-02T18:12:19.975Z,9.50
2019-02-02T18:17:17.489Z,9.50
2019-02-02T18:21:23.297Z,9.60
2019-02-02T18:26:17.220Z,9.70
2019-02-02T18:40:25.976Z,9.50
2019-02-02T18:44:31.641Z,9.70
2019-02-02T18:48:37.330Z,9.80
2019-02-02T18:52:43.444Z,9.80
2019-02-02T18:56:49.203Z,9.80
2019-02-02T19:00:54.938Z,9.80
2019-02-02T19:05:04.060Z,9.80
2019-02-02T19:09:09.196Z,9.90
2019-02-02T19:17:44.175Z,10.00
2019-02-02T19:21:49.868Z,9.90
2019-02-02T19:25:55.555Z,9.80
2019-02-02T19:30:01.237Z,9.90
2019-02-02T19:34:06.938Z,10.00
2019-02-02T19:38:13.914Z,10.00
2019-02-02T19:42:19.622Z,10.00
2019-02-02T19:46:25.325Z,10.00
2019-02-02T19:50:31.159Z,10.00
2019-02-02T19:54:36.839Z,10.00
2019-02-02T19:58:42.640Z,10.00
2019-02-02T20:02:49.359Z,10.00
2019-02-02T20:06:56.093Z,10.00
2019-02-02T20:11:02.846Z,10.00
2019-02-02T20:15:15.080Z,9.90
2019-02-02T20:19:20.778Z,9.70
2019-02-02T20:23:26.486Z,9.60
2019-02-02T20:27:32.178Z,9.50
2019-02-02T20:31:37.886Z,9.70
2019-02-02T20:35:43.533Z,9.60
2019-02-02T20:39:49.234Z,9.60
2019-02-02T20:43:54.926Z,9.80
2019-02-02T20:48:00.749Z,9.80
2019-02-02T20:52:18.157Z,9.60
2019-02-02T21:02:19.303Z,9.50
2019-02-02T21:07:15.886Z,9.40
2019-02-02T21:11:21.576Z,9.50
2019-02-02T21:16:17.933Z,9.40
2019-02-02T21:21:16.046Z,9.50
2019-02-02T21:25:21.913Z,9.60
2019-02-02T21:30:15.434Z,9.80
2019-02-02T21:34:21.192Z,9.80
2019-02-02T21:38:28.133Z,9.80
2019-02-02T21:43:18.642Z,9.90
2019-02-02T21:47:24.334Z,9.80
2019-02-02T21:52:18.207Z,9.70
2019-02-02T21:56:23.959Z,9.80
2019-02-02T22:01:24.263Z,9.70
2019-02-02T22:05:25.280Z,9.80
2019-02-02T22:10:18.930Z,9.80
2019-02-02T22:14:24.624Z,9.70
2019-02-02T22:19:17.683Z,9.70
2019-02-02T22:23:23.389Z,9.70
2019-02-02T22:27:29.094Z,9.70
2019-02-02T22:31:35.064Z,9.70
2019-02-02T22:36:27.090Z,9.70
2019-02-02T22:40:28.923Z,9.70
2019-02-02T22:45:17.578Z,9.70
2019-02-02T22:49:23.275Z,9.60
2019-02-02T22:53:28.995Z,9.60
2019-02-02T22:57:34.699Z,9.60
2019-02-02T23:01:40.683Z,9.50
2019-02-02T23:06:17.754Z,9.50
2019-02-02T23:10:50.117Z,9.50
2019-02-02T23:15:49.199Z,9.50
2019-02-02T23:19:55.853Z,9.50
2019-02-02T23:24:01.668Z,9.60
2019-02-02T23:28:07.355Z,9.70
2019-02-02T23:32:13.113Z,9.70
2019-02-02T23:36:18.893Z,9.70
2019-02-02T23:40:24.595Z,9.70
2019-02-02T23:44:30.295Z,9.60
2019-02-02T23:48:35.996Z,9.60
2019-02-02T23:52:41.690Z,9.60
2019-02-02T23:56:47.383Z,9.60
